createdAt,value
2023-04-07T00:01:47.171Z,2.02
2023-04-07T00:04:14.955Z,1.99
2023-04-07T00:06:43.728Z,1.90
2023-04-07T00:09:11.435Z,1.83
2023-04-07T00:11:39.020Z,1.77
2023-04-07T00:14:06.476Z,1.73
2023-04-07T00:16:33.970Z,1.66
2023-04-07T00:19:02.082Z,1.58
2023-04-07T00:21:29.532Z,1.52
2023-04-07T00:23:57.298Z,1.53
2023-04-07T00:26:27.254Z,1.52
2023-04-07T00:28:54.749Z,1.54
2023-04-07T00:31:22.416Z,1.53
2023-04-07T00:33:50.045Z,1.54
2023-04-07T00:36:17.623Z,1.49
2023-04-07T00:38:45.108Z,1.50
2023-04-07T00:41:12.750Z,1.52
2023-04-07T00:43:40.379Z,1.54
2023-04-07T00:46:08.190Z,1.55
2023-04-07T00:48:37.191Z,1.58
2023-04-07T00:51:05.805Z,1.60
2023-04-07T00:53:33.426Z,1.52
2023-04-07T00:56:01.195Z,1.51
2023-04-07T00:58:28.711Z,1.50
2023-04-07T01:01:09.045Z,1.50
2023-04-07T01:03:47.094Z,1.45
2023-04-07T01:06:17.342Z,1.51
2023-04-07T01:08:50.695Z,1.53
2023-04-07T01:11:18.464Z,1.53
2023-04-07T01:13:48.314Z,1.50
2023-04-07T01:16:47.377Z,1.48
2023-04-07T01:19:38.257Z,1.45
2023-04-07T01:22:18.059Z,1.40
2023-04-07T01:25:13.489Z,1.36
2023-04-07T01:28:11.962Z,1.33
2023-04-07T01:30:41.988Z,1.31
2023-04-07T01:33:11.398Z,1.26
2023-04-07T01:35:41.678Z,1.26
2023-04-07T01:38:11.094Z,1.27
2023-04-07T01:40:40.015Z,1.27
2023-04-07T01:43:08.458Z,1.29
2023-04-07T01:45:36.644Z,1.30
2023-04-07T01:48:08.555Z,1.36
2023-04-07T01:50:38.984Z,1.32
2023-04-07T01:53:07.674Z,1.26
2023-04-07T01:55:35.652Z,1.23
2023-04-07T01:58:07.608Z,1.21
2023-04-07T02:00:37.106Z,1.20
2023-04-07T02:03:21.273Z,1.19
2023-04-07T02:05:52.491Z,1.15
2023-04-07T02:08:22.124Z,1.19
2023-04-07T02:10:52.383Z,1.20
2023-04-07T02:13:21.410Z,1.20
2023-04-07T02:15:52.945Z,1.13
2023-04-07T02:18:22.432Z,1.13
2023-04-07T02:20:52.362Z,1.18
2023-04-07T02:23:19.938Z,1.23
2023-04-07T02:25:47.477Z,1.23
2023-04-07T02:28:14.890Z,1.23
2023-04-07T02:30:42.474Z,1.20
2023-04-07T02:33:09.946Z,1.17
2023-04-07T02:35:37.487Z,1.18
2023-04-07T02:38:05.003Z,1.11
2023-04-07T02:40:36.793Z,1.09
2023-04-07T02:43:05.409Z,1.11
2023-04-07T02:45:32.926Z,1.14
2023-04-07T02:48:00.531Z,1.15
2023-04-07T02:50:29.297Z,1.18
2023-04-07T02:52:56.842Z,1.19
2023-04-07T02:55:24.425Z,1.20
2023-04-07T02:57:52.069Z,1.22
2023-04-07T03:00:35.035Z,1.28
2023-04-07T03:03:10.702Z,1.28
2023-04-07T03:05:41.468Z,1.26
2023-04-07T03:08:12.781Z,1.23
2023-04-07T03:10:41.154Z,1.22
2023-04-07T03:13:09.715Z,1.22
2023-04-07T03:15:38.409Z,1.22
2023-04-07T03:18:06.988Z,1.20
2023-04-07T03:20:35.486Z,1.19
2023-04-07T03:23:09.200Z,1.12
2023-04-07T03:25:37.344Z,1.09
2023-04-07T03:28:05.752Z,1.06
2023-04-07T03:30:37.581Z,1.03
2023-04-07T03:33:05.585Z,1.05
2023-04-07T03:35:33.792Z,1.04
2023-04-07T03:38:01.312Z,1.07
2023-04-07T03:40:28.848Z,1.08
2023-04-07T03:42:56.369Z,1.10
2023-04-07T03:45:23.983Z,1.14
2023-04-07T03:47:54.353Z,1.14
2023-04-07T03:50:23.137Z,1.15
2023-04-07T03:52:58.604Z,1.17
2023-04-07T03:55:30.558Z,1.13
2023-04-07T03:58:03.069Z,1.13
2023-04-07T04:00:33.795Z,1.10
2023-04-07T04:03:07.636Z,1.11
2023-04-07T04:05:38.679Z,1.10
2023-04-07T04:08:07.628Z,1.08
2023-04-07T04:10:38.767Z,1.08
2023-04-07T04:13:08.090Z,1.08
2023-04-07T04:15:36.766Z,1.07
2023-04-07T04:18:08.873Z,1.05
2023-04-07T04:20:37.560Z,1.03
2023-04-07T04:23:06.560Z,1.00
2023-04-07T04:25:35.669Z,0.97
2023-04-07T04:28:07.210Z,0.94
2023-04-07T04:30:36.002Z,0.93
2023-04-07T04:33:04.808Z,0.94
2023-04-07T04:35:46.586Z,0.91
2023-04-07T04:38:20.072Z,0.95
2023-04-07T04:40:58.768Z,0.95
2023-04-07T04:43:30.580Z,0.92
2023-04-07T04:45:59.548Z,0.91
2023-04-07T04:48:29.596Z,0.91
2023-04-07T04:50:57.850Z,0.92
2023-04-07T04:53:25.369Z,0.95
2023-04-07T04:55:57.518Z,0.99
2023-04-07T04:58:36.100Z,1.06
2023-04-07T05:01:03.674Z,1.12
2023-04-07T05:03:42.818Z,1.18
2023-04-07T05:06:17.769Z,1.22
2023-04-07T05:08:47.751Z,1.27
2023-04-07T05:11:17.709Z,1.30
2023-04-07T05:13:49.855Z,1.37
2023-04-07T05:16:17.752Z,1.42
2023-04-07T05:18:45.642Z,1.48
2023-04-07T05:21:13.408Z,1.55
2023-04-07T05:23:41.798Z,1.66
2023-04-07T05:26:11.535Z,1.87
2023-04-07T05:28:39.877Z,2.15
2023-04-07T05:31:14.788Z,2.60
2023-04-07T05:33:42.358Z,3.19
2023-04-07T05:36:11.029Z,3.71
2023-04-07T05:38:40.589Z,4.22
2023-04-07T05:41:12.951Z,4.58
2023-04-07T05:43:40.427Z,4.58
2023-04-07T05:46:07.961Z,4.42
2023-04-07T05:48:41.664Z,4.27
2023-04-07T05:51:09.185Z,4.15
2023-04-07T05:53:36.757Z,4.08
2023-04-07T05:56:04.288Z,4.09
2023-04-07T05:58:44.882Z,4.11
2023-04-07T06:01:13.558Z,4.21
2023-04-07T06:03:41.367Z,4.35
2023-04-07T06:06:24.009Z,4.55
2023-04-07T06:08:51.454Z,4.71
2023-04-07T06:11:19.124Z,4.76
2023-04-07T06:13:46.999Z,4.88
2023-04-07T06:16:15.554Z,4.73
2023-04-07T06:18:44.341Z,4.85
2023-04-07T06:21:11.766Z,5.06
2023-04-07T06:23:39.404Z,5.11
2023-04-07T06:26:11.908Z,5.07
2023-04-07T06:28:39.827Z,5.27
2023-04-07T06:31:08.915Z,5.39
2023-04-07T06:33:37.687Z,5.91
2023-04-07T06:36:05.290Z,6.76
2023-04-07T06:38:33.048Z,7.47
2023-04-07T06:41:00.579Z,8.12
2023-04-07T06:43:28.118Z,8.64
2023-04-07T06:46:02.901Z,8.89
2023-04-07T06:48:30.519Z,9.26
2023-04-07T06:50:58.022Z,9.33
2023-04-07T06:53:25.649Z,9.68
2023-04-07T06:56:03.549Z,9.36
2023-04-07T06:58:31.468Z,9.56
2023-04-07T07:00:58.964Z,9.76
2023-04-07T07:03:27.901Z,9.41
2023-04-07T07:05:58.826Z,8.94
2023-04-07T07:08:27.373Z,8.98
2023-04-07T07:10:55.944Z,9.10
2023-04-07T07:13:26.409Z,9.30
2023-04-07T07:15:54.274Z,9.52
2023-04-07T07:18:21.847Z,10.25
2023-04-07T07:20:49.384Z,10.42
2023-04-07T07:23:16.869Z,10.09
2023-04-07T07:25:44.988Z,9.73
2023-04-07T07:28:12.382Z,9.54
2023-04-07T07:30:41.690Z,9.22
2023-04-07T07:33:09.244Z,8.81
2023-04-07T07:35:38.088Z,8.51
2023-04-07T07:38:05.531Z,8.13
2023-04-07T07:40:33.502Z,8.41
2023-04-07T07:43:01.109Z,8.55
2023-04-07T07:45:28.640Z,8.83
2023-04-07T07:47:56.121Z,9.48
2023-04-07T07:50:24.033Z,9.62
2023-04-07T07:52:51.638Z,9.65
2023-04-07T07:55:19.349Z,9.72
2023-04-07T07:57:46.816Z,10.25
2023-04-07T08:00:14.621Z,10.02
2023-04-07T08:02:42.576Z,9.13
2023-04-07T08:05:10.196Z,8.20
2023-04-07T08:07:37.822Z,7.69
2023-04-07T08:10:05.776Z,7.48
2023-04-07T08:12:33.271Z,7.10
2023-04-07T08:15:00.984Z,6.82
2023-04-07T08:17:28.575Z,6.78
2023-04-07T08:19:56.039Z,6.70
2023-04-07T08:22:23.653Z,6.57
2023-04-07T08:24:51.090Z,6.39
2023-04-07T08:27:18.768Z,6.28
2023-04-07T08:29:46.318Z,6.19
2023-04-07T08:32:14.196Z,6.16
2023-04-07T08:34:41.634Z,6.23
2023-04-07T08:37:09.749Z,6.35
2023-04-07T08:39:37.254Z,6.51
2023-04-07T08:42:04.934Z,6.73
2023-04-07T08:44:32.792Z,6.59
2023-04-07T08:47:03.338Z,6.52
2023-04-07T08:49:33.270Z,6.68
2023-04-07T08:52:05.396Z,6.77
2023-04-07T08:54:34.279Z,6.67
2023-04-07T08:57:03.787Z,6.68
2023-04-07T08:59:33.758Z,6.62
2023-04-07T09:02:02.322Z,6.60
2023-04-07T09:04:30.024Z,6.61
2023-04-07T09:06:57.473Z,6.58
2023-04-07T09:09:25.055Z,6.61
2023-04-07T09:11:52.852Z,6.57
2023-04-07T09:14:21.835Z,6.58
2023-04-07T09:16:49.451Z,6.74
2023-04-07T09:19:16.912Z,6.84
2023-04-07T09:21:51.670Z,6.84
2023-04-07T09:24:27.975Z,6.85
2023-04-07T09:27:18.798Z,6.87
2023-04-07T09:29:47.963Z,6.69
2023-04-07T09:32:41.673Z,6.69
2023-04-07T09:35:09.954Z,6.70
2023-04-07T09:37:37.619Z,6.77
2023-04-07T09:40:05.762Z,6.51
2023-04-07T09:42:36.142Z,6.57
2023-04-07T09:45:03.910Z,6.72
2023-04-07T09:47:32.999Z,6.82
2023-04-07T09:50:06.925Z,6.76
2023-04-07T09:52:52.040Z,6.85
2023-04-07T09:55:22.597Z,6.79
2023-04-07T09:57:55.564Z,6.85
2023-04-07T10:00:23.929Z,6.98
2023-04-07T10:02:53.392Z,7.19
2023-04-07T10:05:23.797Z,7.30
2023-04-07T10:07:51.698Z,7.38
2023-04-07T10:10:19.306Z,7.48
2023-04-07T10:12:50.098Z,7.49
2023-04-07T10:15:17.800Z,7.63
2023-04-07T10:17:48.398Z,7.61
2023-04-07T10:20:21.333Z,7.42
2023-04-07T10:22:51.577Z,7.56
2023-04-07T10:25:22.751Z,7.83
2023-04-07T10:27:55.036Z,7.74
2023-04-07T10:30:26.442Z,7.58
2023-04-07T10:32:55.565Z,7.59
2023-04-07T10:35:23.874Z,7.84
2023-04-07T10:38:16.596Z,7.96
2023-04-07T10:40:44.737Z,8.04
2023-04-07T10:43:12.429Z,8.28
2023-04-07T10:45:49.076Z,8.22
2023-04-07T10:48:18.607Z,8.62
2023-04-07T10:50:47.267Z,8.85
2023-04-07T10:53:15.701Z,9.26
2023-04-07T10:55:47.339Z,9.37
2023-04-07T10:58:14.917Z,9.54
2023-04-07T11:00:43.701Z,9.56
2023-04-07T11:03:14.830Z,9.41
2023-04-07T11:05:43.269Z,9.22
2023-04-07T11:08:10.989Z,9.26
2023-04-07T11:10:39.018Z,9.33
2023-04-07T11:13:10.510Z,9.44
2023-04-07T11:15:40.738Z,9.33
2023-04-07T11:18:17.672Z,9.17
2023-04-07T11:20:51.151Z,9.54
2023-04-07T11:23:20.195Z,9.81
2023-04-07T11:25:50.063Z,10.52
2023-04-07T11:28:18.177Z,10.85
2023-04-07T11:30:50.033Z,9.84
2023-04-07T11:33:25.718Z,9.15
2023-04-07T11:35:56.359Z,9.26
2023-04-07T11:38:27.442Z,9.35
2023-04-07T11:40:56.665Z,9.16
2023-04-07T11:43:26.617Z,9.07
2023-04-07T11:46:17.111Z,9.30
2023-04-07T11:48:45.902Z,9.44
2023-04-07T11:51:22.919Z,9.77
2023-04-07T11:53:57.132Z,9.85
2023-04-07T11:56:24.967Z,10.13
2023-04-07T11:58:55.045Z,10.39
2023-04-07T12:01:24.973Z,10.49
2023-04-07T12:04:04.538Z,10.40
2023-04-07T12:06:41.755Z,10.80
2023-04-07T12:09:25.693Z,9.87
2023-04-07T12:11:53.552Z,10.03
2023-04-07T12:14:21.029Z,10.24
2023-04-07T12:16:48.780Z,10.44
2023-04-07T12:19:16.664Z,10.68
2023-04-07T12:21:44.303Z,10.32
2023-04-07T12:24:11.988Z,9.67
2023-04-07T12:26:39.442Z,9.59
2023-04-07T12:29:07.267Z,9.03
2023-04-07T12:31:35.011Z,8.90
2023-04-07T12:34:03.510Z,9.06
2023-04-07T12:36:30.960Z,9.26
2023-04-07T12:38:59.187Z,9.22
2023-04-07T12:41:27.021Z,9.15
2023-04-07T12:43:54.751Z,8.74
2023-04-07T12:46:22.591Z,8.23
2023-04-07T12:48:50.209Z,8.46
2023-04-07T12:51:17.828Z,8.96
2023-04-07T12:53:45.486Z,8.86
2023-04-07T12:56:13.396Z,8.70
2023-04-07T12:58:41.060Z,8.73
2023-04-07T13:01:08.659Z,8.58
2023-04-07T13:03:36.518Z,8.56
2023-04-07T13:06:04.666Z,8.96
2023-04-07T13:08:32.244Z,8.79
2023-04-07T13:10:59.745Z,8.48
2023-04-07T13:13:27.243Z,8.31
2023-04-07T13:15:54.769Z,8.24
2023-04-07T13:18:22.259Z,8.37
2023-04-07T13:21:02.878Z,8.47
2023-04-07T13:23:43.382Z,8.67
2023-04-07T13:26:11.904Z,8.72
2023-04-07T13:28:39.299Z,8.64
2023-04-07T13:31:07.798Z,8.90
2023-04-07T13:33:35.583Z,8.95
2023-04-07T13:36:03.199Z,8.77
2023-04-07T13:38:30.647Z,8.49
2023-04-07T13:40:58.115Z,8.49
2023-04-07T13:43:25.631Z,8.56
2023-04-07T13:45:53.243Z,8.86
2023-04-07T13:48:20.809Z,9.35
2023-04-07T13:50:48.354Z,9.76
2023-04-07T13:53:17.854Z,9.70
2023-04-07T13:55:46.554Z,9.18
2023-04-07T13:58:13.989Z,9.16
2023-04-07T14:00:41.716Z,8.77
2023-04-07T14:03:09.693Z,8.43
2023-04-07T14:05:37.325Z,8.48
2023-04-07T14:08:04.869Z,8.53
2023-04-07T14:10:33.580Z,8.82
2023-04-07T14:13:01.687Z,8.94
2023-04-07T14:15:29.269Z,9.36
2023-04-07T14:17:56.778Z,8.92
2023-04-07T14:20:25.905Z,8.48
2023-04-07T14:22:54.971Z,8.35
2023-04-07T14:25:22.490Z,8.41
2023-04-07T14:27:49.984Z,8.63
2023-04-07T14:30:17.535Z,8.56
2023-04-07T14:32:45.121Z,8.35
2023-04-07T14:35:12.628Z,8.19
2023-04-07T14:37:40.246Z,8.35
2023-04-07T14:40:08.505Z,8.26
2023-04-07T14:42:37.127Z,8.31
2023-04-07T14:45:04.892Z,8.36
2023-04-07T14:47:32.389Z,8.08
2023-04-07T14:49:59.981Z,8.19
2023-04-07T14:52:27.884Z,8.09
2023-04-07T14:54:56.601Z,7.80
2023-04-07T14:57:24.876Z,7.91
2023-04-07T14:59:52.389Z,7.93
2023-04-07T15:02:19.959Z,7.76
2023-04-07T15:04:47.437Z,7.70
2023-04-07T15:07:14.995Z,7.64
2023-04-07T15:09:42.640Z,7.63
2023-04-07T15:12:10.169Z,7.69
2023-04-07T15:14:37.590Z,7.84
2023-04-07T15:17:05.082Z,8.01
2023-04-07T15:19:32.519Z,7.86
2023-04-07T15:22:00.001Z,7.93
2023-04-07T15:24:27.591Z,7.79
2023-04-07T15:26:55.330Z,7.80
2023-04-07T15:29:22.848Z,7.76
2023-04-07T15:31:50.548Z,7.71
2023-04-07T15:34:19.461Z,7.67
2023-04-07T15:36:48.454Z,7.66
2023-04-07T15:39:17.079Z,7.71
2023-04-07T15:41:44.526Z,7.47
2023-04-07T15:44:18.925Z,7.36
2023-04-07T15:46:46.546Z,7.45
2023-04-07T15:49:20.124Z,7.44
2023-04-07T15:51:48.026Z,7.27
2023-04-07T15:54:15.509Z,7.12
2023-04-07T15:56:43.010Z,7.29
2023-04-07T15:59:10.556Z,7.19
2023-04-07T16:01:38.711Z,7.33
2023-04-07T16:04:06.423Z,6.98
2023-04-07T16:06:34.246Z,6.97
2023-04-07T16:09:02.182Z,7.00
2023-04-07T16:11:29.661Z,6.93
2023-04-07T16:13:57.124Z,6.84
2023-04-07T16:16:24.694Z,6.89
2023-04-07T16:18:52.191Z,6.78
2023-04-07T16:21:19.676Z,6.64
2023-04-07T16:23:47.390Z,6.59
2023-04-07T16:26:15.033Z,6.40
2023-04-07T16:28:44.344Z,6.37
2023-04-07T16:31:12.535Z,6.44
2023-04-07T16:33:40.013Z,6.37
2023-04-07T16:36:07.690Z,6.36
2023-04-07T16:38:35.274Z,6.33
2023-04-07T16:41:04.687Z,6.44
2023-04-07T16:43:32.511Z,6.30
2023-04-07T16:46:00.680Z,6.16
2023-04-07T16:48:28.196Z,6.18
2023-04-07T16:50:55.733Z,6.17
2023-04-07T16:53:23.270Z,6.01
2023-04-07T16:55:50.780Z,5.98
2023-04-07T16:58:19.763Z,5.92
2023-04-07T17:00:47.392Z,5.74
2023-04-07T17:03:15.721Z,5.63
2023-04-07T17:05:44.794Z,5.69
2023-04-07T17:08:12.485Z,5.65
2023-04-07T17:10:39.985Z,5.63
2023-04-07T17:13:07.453Z,5.54
2023-04-07T17:15:38.500Z,5.60
2023-04-07T17:18:06.293Z,5.54
2023-04-07T17:20:33.774Z,5.39
2023-04-07T17:23:01.520Z,5.34
2023-04-07T17:25:29.008Z,5.25
2023-04-07T17:27:56.440Z,5.26
2023-04-07T17:30:23.989Z,5.06
2023-04-07T17:32:53.549Z,5.02
2023-04-07T17:35:21.637Z,5.05
2023-04-07T17:37:50.863Z,5.00
2023-04-07T17:40:18.466Z,4.99
2023-04-07T17:42:46.375Z,4.90
2023-04-07T17:45:13.926Z,4.88
2023-04-07T17:47:41.484Z,4.88
2023-04-07T17:50:09.428Z,4.87
2023-04-07T17:52:36.975Z,4.83
2023-04-07T17:55:04.777Z,4.91
2023-04-07T17:57:33.076Z,4.87
2023-04-07T18:00:00.673Z,4.82
2023-04-07T18:02:29.089Z,4.85
2023-04-07T18:05:01.048Z,4.81
2023-04-07T18:07:29.560Z,4.87
2023-04-07T18:09:58.070Z,4.81
2023-04-07T18:12:25.776Z,4.77
2023-04-07T18:14:53.431Z,4.86
2023-04-07T18:17:20.960Z,4.73
2023-04-07T18:19:48.745Z,4.75
2023-04-07T18:22:16.431Z,4.73
2023-04-07T18:24:44.654Z,4.61
2023-04-07T18:27:12.476Z,4.75
2023-04-07T18:29:39.968Z,4.74
2023-04-07T18:32:07.672Z,4.85
2023-04-07T18:34:35.195Z,4.76
2023-04-07T18:37:02.834Z,4.61
2023-04-07T18:39:30.260Z,4.63
2023-04-07T18:41:58.046Z,4.60
2023-04-07T18:44:26.249Z,4.55
2023-04-07T18:46:54.595Z,4.53
2023-04-07T18:49:22.058Z,4.54
2023-04-07T18:51:49.530Z,4.55
2023-04-07T18:54:17.848Z,4.65
2023-04-07T18:56:45.361Z,4.69
2023-04-07T18:59:13.099Z,4.66
2023-04-07T19:01:42.674Z,4.60
2023-04-07T19:04:10.830Z,4.62
2023-04-07T19:06:38.353Z,4.52
2023-04-07T19:09:05.811Z,4.44
2023-04-07T19:11:33.418Z,4.47
2023-04-07T19:14:01.185Z,4.41
2023-04-07T19:16:28.792Z,4.18
2023-04-07T19:18:56.473Z,4.08
2023-04-07T19:21:23.962Z,4.05
2023-04-07T19:23:53.235Z,3.92
2023-04-07T19:26:21.446Z,3.91
2023-04-07T19:28:49.777Z,3.75
2023-04-07T19:31:17.268Z,3.59
2023-04-07T19:33:44.789Z,3.56
2023-04-07T19:36:12.381Z,3.65
2023-04-07T19:38:39.945Z,3.60
2023-04-07T19:41:07.456Z,3.33
2023-04-07T19:43:34.950Z,3.36
2023-04-07T19:46:03.793Z,3.27
2023-04-07T19:48:32.613Z,3.16
2023-04-07T19:51:00.125Z,3.17
2023-04-07T19:53:29.102Z,3.13
2023-04-07T19:55:56.711Z,3.15
2023-04-07T19:58:24.855Z,3.14
2023-04-07T20:00:52.577Z,3.10
2023-04-07T20:03:20.895Z,3.18
2023-04-07T20:05:48.550Z,3.24
2023-04-07T20:08:16.005Z,3.26
2023-04-07T20:10:43.437Z,3.39
2023-04-07T20:13:11.300Z,3.31
2023-04-07T20:15:39.116Z,3.32
2023-04-07T20:18:06.623Z,3.25
2023-04-07T20:20:34.209Z,3.18
2023-04-07T20:23:01.688Z,3.14
2023-04-07T20:25:29.112Z,3.02
2023-04-07T20:27:56.611Z,2.92
2023-04-07T20:30:24.131Z,2.98
2023-04-07T20:32:51.751Z,2.99
2023-04-07T20:35:19.754Z,2.96
2023-04-07T20:37:47.352Z,3.15
2023-04-07T20:40:14.825Z,3.23
2023-04-07T20:42:42.351Z,3.35
2023-04-07T20:45:10.217Z,3.27
2023-04-07T20:47:38.106Z,3.22
2023-04-07T20:50:06.693Z,3.13
2023-04-07T20:52:36.931Z,3.20
2023-04-07T20:55:04.810Z,3.37
2023-04-07T20:57:32.221Z,3.45
2023-04-07T21:00:00.536Z,3.41
2023-04-07T21:02:28.448Z,3.47
2023-04-07T21:04:56.555Z,3.50
2023-04-07T21:07:24.616Z,3.42
2023-04-07T21:09:52.115Z,3.44
2023-04-07T21:12:19.642Z,3.54
2023-04-07T21:14:47.121Z,3.55
2023-04-07T21:17:14.858Z,3.56
2023-04-07T21:19:42.770Z,3.50
2023-04-07T21:22:12.902Z,3.52
2023-04-07T21:24:40.461Z,3.38
2023-04-07T21:27:07.958Z,3.42
2023-04-07T21:29:35.718Z,3.40
2023-04-07T21:32:03.256Z,3.37
2023-04-07T21:34:30.899Z,3.36
2023-04-07T21:36:58.418Z,3.29
2023-04-07T21:39:26.195Z,3.34
2023-04-07T21:41:53.689Z,3.36
2023-04-07T21:44:21.670Z,3.35
2023-04-07T21:46:49.292Z,3.30
2023-04-07T21:49:22.430Z,3.33
2023-04-07T21:51:50.009Z,3.30
2023-04-07T21:54:17.497Z,3.15
2023-04-07T21:56:49.218Z,3.18
2023-04-07T21:59:17.426Z,3.11
2023-04-07T22:01:47.116Z,2.96
2023-04-07T22:04:14.935Z,2.95
2023-04-07T22:06:42.524Z,3.01
2023-04-07T22:09:10.075Z,3.01
2023-04-07T22:11:37.599Z,2.95
2023-04-07T22:14:05.177Z,3.04
2023-04-07T22:16:32.737Z,3.08
2023-04-07T22:19:00.379Z,3.05
2023-04-07T22:21:27.952Z,3.07
2023-04-07T22:23:55.510Z,3.09
2023-04-07T22:26:22.977Z,3.15
2023-04-07T22:28:50.766Z,3.24
2023-04-07T22:31:18.646Z,3.30
2023-04-07T22:33:46.246Z,3.36
2023-04-07T22:36:13.743Z,3.40
2023-04-07T22:38:41.197Z,3.41
2023-04-07T22:41:08.713Z,3.39
2023-04-07T22:43:36.244Z,3.42
2023-04-07T22:46:03.760Z,3.37
2023-04-07T22:48:31.296Z,3.40
2023-04-07T22:50:58.746Z,3.42
2023-04-07T22:53:26.477Z,3.47
2023-04-07T22:55:53.995Z,3.45
2023-04-07T22:58:21.531Z,3.43
2023-04-07T23:01:45.395Z,3.50
2023-04-07T23:04:13.007Z,3.49
2023-04-07T23:06:43.547Z,3.44
2023-04-07T23:09:11.762Z,3.43
2023-04-07T23:11:39.312Z,3.31
2023-04-07T23:14:07.065Z,3.32
2023-04-07T23:16:34.901Z,3.34
2023-04-07T23:19:02.460Z,3.34
2023-04-07T23:21:31.464Z,3.30
2023-04-07T23:23:59.944Z,3.34
2023-04-07T23:26:27.610Z,3.32
2023-04-07T23:28:55.084Z,3.26
2023-04-07T23:31:22.640Z,3.30
2023-04-07T23:33:50.192Z,3.30
2023-04-07T23:36:17.801Z,3.27
2023-04-07T23:38:45.557Z,3.25
2023-04-07T23:41:13.284Z,3.20
2023-04-07T23:43:40.758Z,3.21
2023-04-07T23:46:08.313Z,3.20
2023-04-07T23:48:36.408Z,3.19
2023-04-07T23:51:03.931Z,3.25
2023-04-07T23:53:31.442Z,3.21
2023-04-07T23:55:58.974Z,3.26
2023-04-07T23:58:26.468Z,3.20
